createdAt,value
2019-04-28T00:00:45.482Z,7.00
2019-04-28T00:03:13.888Z,7.00
2019-04-28T00:05:42.289Z,6.90
2019-04-28T00:08:10.932Z,7.00
2019-04-28T00:10:39.462Z,7.00
2019-04-28T00:13:08.032Z,7.00
2019-04-28T00:15:36.769Z,7.00
2019-04-28T00:18:05.253Z,7.00
2019-04-28T00:20:52.195Z,7.10
2019-04-28T00:23:22.239Z,7.00
2019-04-28T00:28:26.081Z,7.00
2019-04-28T00:30:54.481Z,7.00
2019-04-28T00:33:22.886Z,7.00
2019-04-28T00:38:21.588Z,7.00
2019-04-28T00:40:51.015Z,6.90
2019-04-28T00:43:21.795Z,6.90
2019-04-28T00:45:51.297Z,6.90
2019-04-28T00:50:49.455Z,6.90
2019-04-28T00:53:17.859Z,6.80
2019-04-28T00:55:46.253Z,6.70
2019-04-28T01:00:44.464Z,6.70
2019-04-28T01:05:41.214Z,6.70
2019-04-28T01:08:10.978Z,6.70
2019-04-28T01:10:41.021Z,6.80
2019-04-28T01:13:11.599Z,6.80
2019-04-28T01:15:50.582Z,6.80
2019-04-28T01:18:23.657Z,6.80
2019-04-28T01:23:20.374Z,6.80
2019-04-28T01:25:50.069Z,6.80
2019-04-28T01:28:19.627Z,6.80
2019-04-28T01:30:50.336Z,6.90
2019-04-28T01:33:20.644Z,6.90
2019-04-28T01:35:49.420Z,6.80
2019-04-28T01:38:18.024Z,6.80
2019-04-28T01:40:46.897Z,6.80
2019-04-28T01:45:43.370Z,6.90
2019-04-28T01:48:11.768Z,6.90
2019-04-28T01:50:40.168Z,6.90
2019-04-28T01:55:39.549Z,6.90
2019-04-28T01:58:09.593Z,6.80
2019-04-28T02:00:40.430Z,6.80
2019-04-28T02:03:10.381Z,6.80
2019-04-28T02:05:40.551Z,6.70
2019-04-28T02:08:10.192Z,6.70
2019-04-28T02:10:40.167Z,6.60
2019-04-28T02:15:40.046Z,6.60
2019-04-28T02:18:09.960Z,6.60
2019-04-28T02:20:40.000Z,6.50
2019-04-28T02:23:12.841Z,6.50
2019-04-28T02:25:41.226Z,6.50
2019-04-28T02:28:11.745Z,6.50
2019-04-28T02:30:45.489Z,6.50
2019-04-28T02:35:41.800Z,6.40
2019-04-28T02:38:11.479Z,6.40
2019-04-28T02:40:40.708Z,6.40
2019-04-28T02:43:11.445Z,6.50
2019-04-28T02:45:41.227Z,6.40
2019-04-28T02:48:11.589Z,6.40
2019-04-28T02:50:41.648Z,6.40
2019-04-28T02:53:14.616Z,6.40
2019-04-28T02:55:43.026Z,6.50
2019-04-28T02:58:13.370Z,6.50
2019-04-28T03:01:00.392Z,6.50
2019-04-28T03:05:41.247Z,6.50
2019-04-28T03:08:11.118Z,6.40
2019-04-28T03:10:40.995Z,6.40
2019-04-28T03:13:10.824Z,6.40
2019-04-28T03:15:41.390Z,6.40
2019-04-28T03:18:11.465Z,6.40
2019-04-28T03:20:41.782Z,6.30
2019-04-28T03:23:12.394Z,6.30
2019-04-28T03:25:42.368Z,6.20
2019-04-28T03:28:12.414Z,6.20
2019-04-28T03:30:45.382Z,6.20
2019-04-28T03:33:23.841Z,6.20
2019-04-28T03:35:53.067Z,6.20
2019-04-28T03:38:21.227Z,6.10
2019-04-28T03:40:51.274Z,6.10
2019-04-28T03:43:21.183Z,6.10
2019-04-28T03:45:56.334Z,6.00
2019-04-28T03:48:24.721Z,6.00
2019-04-28T03:50:53.144Z,5.90
2019-04-28T03:53:21.597Z,5.90
2019-04-28T03:55:51.339Z,5.90
2019-04-28T03:58:23.640Z,5.80
2019-04-28T04:00:50.806Z,5.80
2019-04-28T04:03:20.930Z,5.80
2019-04-28T04:05:50.831Z,5.70
2019-04-28T04:10:54.108Z,5.70
2019-04-28T04:13:33.250Z,5.60
2019-04-28T04:16:03.338Z,5.50
2019-04-28T04:18:53.775Z,5.60
2019-04-28T04:21:22.599Z,5.60
2019-04-28T04:23:51.148Z,5.60
2019-04-28T04:26:21.256Z,5.70
2019-04-28T04:28:51.496Z,5.80
2019-04-28T04:31:20.200Z,5.80
2019-04-28T04:33:50.635Z,5.90
2019-04-28T04:36:20.825Z,5.90
2019-04-28T04:38:51.245Z,5.90
2019-04-28T04:41:20.209Z,5.90
2019-04-28T04:43:51.057Z,5.90
2019-04-28T04:46:21.911Z,5.90
2019-04-28T04:48:50.919Z,5.90
2019-04-28T04:51:21.229Z,5.90
2019-04-28T04:56:20.968Z,6.00
2019-04-28T04:58:50.610Z,6.10
2019-04-28T05:01:23.558Z,6.10
2019-04-28T05:03:56.280Z,6.20
2019-04-28T05:06:39.758Z,6.20
2019-04-28T05:09:10.338Z,6.40
2019-04-28T05:11:40.148Z,6.40
2019-04-28T05:14:11.504Z,6.40
2019-04-28T05:16:39.848Z,6.50
2019-04-28T05:19:10.188Z,6.50
2019-04-28T05:21:40.145Z,6.50
2019-04-28T05:24:15.767Z,6.70
2019-04-28T05:26:47.685Z,6.70
2019-04-28T05:29:15.257Z,6.70
2019-04-28T05:31:43.648Z,6.80
2019-04-28T05:34:12.072Z,6.80
2019-04-28T05:36:44.416Z,6.80
2019-04-28T05:39:10.659Z,6.80
2019-04-28T05:41:40.013Z,6.80
2019-04-28T05:44:10.082Z,6.80
2019-04-28T05:46:40.187Z,6.80
2019-04-28T05:49:16.224Z,6.90
2019-04-28T05:51:46.252Z,7.00
2019-04-28T05:57:02.605Z,7.20
2019-04-28T05:59:41.897Z,7.30
2019-04-28T06:04:40.995Z,7.60
2019-04-28T06:07:16.757Z,7.80
2019-04-28T06:09:46.800Z,8.20
2019-04-28T06:12:16.770Z,8.50
2019-04-28T06:14:45.181Z,9.10
2019-04-28T06:17:13.580Z,9.70
2019-04-28T06:19:42.063Z,10.30
2019-04-28T06:22:10.468Z,10.40
2019-04-28T06:24:38.877Z,10.20
2019-04-28T06:27:07.277Z,9.90
2019-04-28T06:29:35.684Z,10.20
2019-04-28T06:34:32.223Z,11.00
2019-04-28T06:37:00.633Z,11.20
2019-04-28T06:39:29.049Z,11.50
2019-04-28T06:41:57.523Z,11.90
2019-04-28T06:44:25.927Z,12.20
2019-04-28T06:46:54.326Z,12.10
2019-04-28T06:49:22.732Z,12.00
2019-04-28T06:51:51.144Z,11.60
2019-04-28T06:54:19.562Z,11.30
2019-04-28T06:56:47.961Z,10.90
2019-04-28T06:59:16.369Z,10.50
2019-04-28T07:01:44.780Z,10.30
2019-04-28T07:04:13.189Z,10.40
2019-04-28T07:06:41.592Z,10.40
2019-04-28T07:11:38.215Z,10.80
2019-04-28T07:14:06.630Z,11.20
2019-04-28T07:19:03.118Z,11.70
2019-04-28T07:21:33.151Z,11.50
2019-04-28T07:24:01.558Z,11.00
2019-04-28T07:26:29.952Z,10.60
2019-04-28T07:28:58.479Z,10.10
2019-04-28T07:31:26.885Z,9.80
2019-04-28T07:33:55.280Z,9.50
2019-04-28T07:38:51.753Z,9.50
2019-04-28T07:41:20.167Z,10.80
2019-04-28T07:43:48.632Z,12.40
2019-04-28T07:46:17.057Z,13.90
2019-04-28T07:48:45.482Z,14.50
2019-04-28T07:51:13.885Z,14.20
2019-04-28T07:53:49.916Z,13.70
2019-04-28T07:58:46.442Z,14.50
2019-04-28T08:01:14.894Z,15.10
2019-04-28T08:03:49.664Z,15.70
2019-04-28T08:06:13.450Z,16.00
2019-04-28T08:08:41.918Z,16.40
2019-04-28T08:13:38.393Z,16.70
2019-04-28T08:16:26.218Z,16.40
2019-04-28T08:18:54.625Z,16.00
2019-04-28T08:23:51.120Z,14.90
2019-04-28T08:26:19.608Z,14.30
2019-04-28T08:28:48.006Z,13.80
2019-04-28T08:34:01.728Z,13.40
2019-04-28T08:36:20.565Z,13.60
2019-04-28T08:38:48.983Z,13.50
2019-04-28T08:41:17.465Z,13.50
2019-04-28T08:46:14.110Z,13.50
2019-04-28T08:48:42.515Z,13.60
2019-04-28T08:51:10.943Z,13.60
2019-04-28T08:56:07.505Z,14.10
2019-04-28T08:58:35.897Z,14.40
2019-04-28T09:01:04.383Z,14.80
2019-04-28T09:03:32.782Z,15.20
2019-04-28T09:06:01.514Z,15.10
2019-04-28T09:10:58.105Z,15.00
2019-04-28T09:13:26.505Z,15.10
2019-04-28T09:18:23.027Z,15.40
2019-04-28T09:20:51.432Z,15.20
2019-04-28T09:23:19.838Z,14.20
2019-04-28T09:25:48.252Z,13.50
2019-04-28T09:30:44.840Z,12.90
2019-04-28T09:33:13.420Z,12.70
2019-04-28T09:35:41.891Z,12.50
2019-04-28T09:43:08.109Z,12.10
2019-04-28T09:45:38.174Z,12.30
2019-04-28T09:48:06.565Z,12.70
2019-04-28T09:58:01.297Z,13.20
2019-04-28T10:00:49.096Z,13.30
2019-04-28T10:08:14.037Z,13.90
2019-04-28T10:10:42.456Z,14.80
2019-04-28T10:15:39.005Z,16.90
2019-04-28T10:23:03.647Z,18.60
2019-04-28T10:25:32.571Z,17.90
2019-04-28T10:28:01.070Z,17.00
2019-04-28T10:30:29.478Z,16.10
2019-04-28T10:32:57.893Z,15.30
2019-04-28T10:37:54.411Z,14.90
2019-04-28T10:55:19.090Z,14.90
2019-04-28T10:57:47.544Z,14.70
2019-04-28T11:10:22.422Z,13.60
2019-04-28T11:20:16.895Z,13.20
2019-04-28T11:25:13.465Z,13.20
2019-04-28T11:27:41.886Z,13.10
2019-04-28T11:30:11.244Z,12.90
2019-04-28T11:40:09.837Z,11.90
2019-04-28T11:45:26.969Z,11.60
2019-04-28T11:47:55.478Z,11.70
2019-04-28T11:50:23.872Z,11.70
2019-04-28T11:52:52.284Z,11.70
2019-04-28T11:55:20.760Z,11.60
2019-04-28T11:57:49.249Z,11.70
2019-04-28T12:00:31.906Z,11.60
2019-04-28T12:03:00.393Z,11.60
2019-04-28T12:10:29.964Z,11.40
2019-04-28T12:15:49.157Z,11.30
2019-04-28T12:21:16.619Z,11.10
2019-04-28T12:23:45.121Z,11.00
2019-04-28T12:26:13.534Z,11.10
2019-04-28T12:28:41.951Z,11.20
2019-04-28T12:31:10.360Z,11.30
2019-04-28T12:33:38.766Z,11.60
2019-04-28T12:38:36.763Z,12.30
2019-04-28T12:41:05.163Z,12.60
2019-04-28T12:43:33.713Z,12.90
2019-04-28T12:46:02.112Z,13.20
2019-04-28T12:48:32.680Z,13.20
2019-04-28T12:51:00.665Z,13.00
2019-04-28T12:55:57.163Z,13.00
2019-04-28T12:58:25.573Z,12.90
2019-04-28T13:01:13.994Z,12.70
2019-04-28T13:03:44.037Z,12.40
2019-04-28T13:08:47.981Z,12.20
2019-04-28T13:11:16.376Z,12.00
2019-04-28T13:16:14.610Z,11.70
2019-04-28T13:18:43.170Z,11.60
2019-04-28T13:21:11.572Z,11.40
2019-04-28T13:23:39.976Z,11.30
2019-04-28T13:26:08.389Z,11.00
2019-04-28T13:31:24.349Z,10.60
2019-04-28T13:33:56.243Z,10.50
2019-04-28T13:36:22.953Z,10.30
2019-04-28T13:38:51.399Z,10.40
2019-04-28T13:43:47.984Z,10.90
2019-04-28T13:46:16.389Z,11.10
2019-04-28T13:51:17.674Z,11.50
2019-04-28T13:53:46.160Z,11.50
2019-04-28T13:58:43.217Z,11.70
2019-04-28T14:03:51.658Z,12.10
2019-04-28T14:08:58.272Z,12.20
2019-04-28T14:11:26.729Z,12.30
2019-04-28T14:13:55.128Z,12.30
2019-04-28T14:16:23.572Z,12.30
2019-04-28T14:18:51.982Z,12.30
2019-04-28T14:23:48.639Z,12.30
2019-04-28T14:31:13.486Z,12.30
2019-04-28T14:33:41.933Z,12.30
2019-04-28T14:36:10.350Z,12.30
2019-04-28T14:41:06.840Z,12.30
2019-04-28T14:43:35.249Z,12.40
2019-04-28T14:46:03.670Z,12.40
2019-04-28T14:48:32.072Z,12.30
2019-04-28T14:53:29.037Z,12.30
2019-04-28T14:55:57.443Z,12.20
2019-04-28T14:58:25.923Z,12.00
2019-04-28T15:01:11.006Z,11.90
2019-04-28T15:03:41.082Z,11.80
2019-04-28T15:08:43.942Z,11.70
2019-04-28T15:11:28.980Z,11.50
2019-04-28T15:13:57.910Z,11.60
2019-04-28T15:16:26.350Z,11.60
2019-04-28T15:18:54.816Z,11.60
2019-04-28T15:21:23.262Z,11.60
2019-04-28T15:23:51.672Z,11.60
2019-04-28T15:31:16.345Z,11.50
2019-04-28T15:36:12.904Z,11.40
2019-04-28T15:38:41.304Z,11.40
2019-04-28T15:41:20.865Z,11.30
2019-04-28T15:43:41.436Z,11.30
2019-04-28T15:48:37.942Z,11.30
2019-04-28T15:51:06.476Z,11.20
2019-04-28T15:53:36.541Z,11.20
2019-04-28T15:56:18.852Z,11.10
2019-04-28T16:01:15.719Z,11.00
2019-04-28T16:03:44.133Z,11.00
2019-04-28T16:08:40.637Z,10.80
2019-04-28T16:13:37.281Z,10.80
2019-04-28T16:16:05.684Z,10.80
2019-04-28T16:21:02.217Z,10.90
2019-04-28T16:25:58.734Z,10.80
2019-04-28T16:28:27.153Z,10.80
2019-04-28T16:30:55.549Z,10.60
2019-04-28T16:35:52.040Z,10.60
2019-04-28T16:38:20.469Z,10.60
2019-04-28T16:40:48.873Z,10.60
2019-04-28T16:45:45.384Z,10.60
2019-04-28T16:48:13.865Z,10.60
2019-04-28T16:50:42.262Z,10.60
2019-04-28T16:53:11.532Z,10.60
2019-04-28T16:55:41.603Z,10.50
2019-04-28T16:58:28.071Z,10.50
2019-04-28T17:00:58.098Z,10.50
2019-04-28T17:03:28.172Z,10.50
2019-04-28T17:05:56.635Z,10.40
2019-04-28T17:08:25.041Z,10.40
2019-04-28T17:10:53.439Z,10.40
2019-04-28T17:13:21.887Z,10.40
2019-04-28T17:15:50.357Z,10.40
2019-04-28T17:20:46.852Z,10.40
2019-04-28T17:25:43.331Z,10.40
2019-04-28T17:28:12.018Z,10.30
2019-04-28T17:30:40.422Z,10.20
2019-04-28T17:33:08.847Z,10.10
2019-04-28T17:35:37.333Z,10.10
2019-04-28T17:38:07.007Z,10.00
2019-04-28T17:40:36.461Z,9.90
2019-04-28T17:43:05.012Z,9.90
2019-04-28T17:45:33.408Z,9.80
2019-04-28T17:48:09.068Z,9.70
2019-04-28T17:50:37.462Z,9.60
2019-04-28T17:53:06.038Z,9.60
2019-04-28T17:55:34.428Z,9.50
2019-04-28T17:58:02.850Z,9.50
2019-04-28T18:00:35.349Z,9.30
2019-04-28T18:03:05.397Z,9.20
2019-04-28T18:05:40.920Z,9.10
2019-04-28T18:08:20.539Z,9.00
2019-04-28T18:10:39.830Z,8.90
2019-04-28T18:13:08.311Z,8.90
2019-04-28T18:15:38.350Z,8.90
2019-04-28T18:18:16.965Z,8.80
2019-04-28T18:20:45.352Z,8.70
2019-04-28T18:25:41.899Z,8.60
2019-04-28T18:30:52.250Z,8.60
2019-04-28T18:33:28.194Z,8.60
2019-04-28T18:35:58.292Z,8.60
2019-04-28T18:38:35.130Z,8.60
2019-04-28T18:41:05.432Z,8.50
2019-04-28T18:43:47.684Z,8.50
2019-04-28T18:46:18.200Z,8.50
2019-04-28T18:48:46.708Z,8.50
2019-04-28T18:51:15.105Z,8.40
2019-04-28T18:56:13.165Z,8.40
2019-04-28T18:58:41.580Z,8.30
2019-04-28T19:01:20.847Z,8.20
2019-04-28T19:03:49.251Z,8.20
2019-04-28T19:06:17.655Z,8.20
2019-04-28T19:08:59.447Z,8.10
2019-04-28T19:11:38.366Z,8.10
2019-04-28T19:14:08.409Z,8.10
2019-04-28T19:16:53.209Z,8.00
2019-04-28T19:19:26.213Z,7.90
2019-04-28T19:21:55.734Z,7.90
2019-04-28T19:24:25.467Z,7.80
2019-04-28T19:26:53.940Z,7.80
2019-04-28T19:29:22.347Z,7.70
2019-04-28T19:31:50.746Z,7.70
2019-04-28T19:34:19.151Z,7.70
2019-04-28T19:36:47.549Z,7.70
2019-04-28T19:39:15.977Z,7.70
2019-04-28T19:41:44.380Z,7.70
2019-04-28T19:44:12.796Z,7.60
2019-04-28T19:49:28.601Z,7.60
2019-04-28T19:51:57.050Z,7.60
2019-04-28T19:54:27.104Z,7.60
2019-04-28T19:59:49.336Z,7.60
2019-04-28T20:02:17.737Z,7.60
2019-04-28T20:04:46.141Z,7.50
2019-04-28T20:07:14.605Z,7.50
2019-04-28T20:09:43.007Z,7.50
2019-04-28T20:12:11.409Z,7.40
2019-04-28T20:14:39.820Z,7.40
2019-04-28T20:17:08.210Z,7.40
2019-04-28T20:22:04.752Z,7.40
2019-04-28T20:27:02.999Z,7.40
2019-04-28T20:29:31.377Z,7.40
2019-04-28T20:31:59.836Z,7.40
2019-04-28T20:34:28.274Z,7.40
2019-04-28T20:36:58.300Z,7.50
2019-04-28T20:39:28.332Z,7.40
2019-04-28T20:41:58.377Z,7.40
2019-04-28T20:44:26.768Z,7.40
2019-04-28T20:49:42.585Z,7.40
2019-04-28T20:52:10.997Z,7.40
2019-04-28T20:54:39.390Z,7.40
2019-04-28T20:57:07.784Z,7.50
2019-04-28T20:59:36.182Z,7.50
2019-04-28T21:02:04.592Z,7.40
2019-04-28T21:04:33.027Z,7.40
2019-04-28T21:07:01.425Z,7.40
2019-04-28T21:11:57.917Z,7.30
2019-04-28T21:14:26.308Z,7.30
2019-04-28T21:16:54.712Z,7.30
2019-04-28T21:19:23.105Z,7.20
2019-04-28T21:21:51.512Z,7.20
2019-04-28T21:24:19.924Z,7.30
2019-04-28T21:26:48.323Z,7.30
2019-04-28T21:31:44.805Z,7.20
2019-04-28T21:36:41.350Z,7.20
2019-04-28T21:39:09.752Z,7.20
2019-04-28T21:41:38.227Z,7.20
2019-04-28T21:46:49.853Z,7.20
2019-04-28T21:49:22.845Z,7.20
2019-04-28T21:51:51.259Z,7.10
2019-04-28T21:54:19.653Z,7.10
2019-04-28T21:56:48.057Z,7.10
2019-04-28T21:59:16.447Z,7.10
2019-04-28T22:01:44.924Z,7.10
2019-04-28T22:04:13.325Z,7.10
2019-04-28T22:06:41.738Z,7.10
2019-04-28T22:09:10.305Z,7.00
2019-04-28T22:14:06.865Z,7.00
2019-04-28T22:16:35.256Z,6.90
2019-04-28T22:21:31.739Z,6.90
2019-04-28T22:24:01.903Z,6.90
2019-04-28T22:26:43.427Z,6.90
2019-04-28T22:29:12.764Z,6.90
2019-04-28T22:31:41.501Z,7.00
2019-04-28T22:34:10.590Z,6.90
2019-04-28T22:36:39.016Z,6.90
2019-04-28T22:39:07.861Z,7.00
2019-04-28T22:41:36.630Z,7.00
2019-04-28T22:44:05.889Z,7.00
2019-04-28T22:46:34.292Z,7.00
2019-04-28T22:49:04.508Z,7.00
2019-04-28T22:51:33.936Z,6.90
2019-04-28T22:54:21.165Z,6.90
2019-04-28T22:59:23.597Z,6.90
2019-04-28T23:02:15.745Z,6.80
2019-04-28T23:04:45.860Z,6.90
2019-04-28T23:09:42.417Z,6.90
2019-04-28T23:12:11.285Z,6.80
2019-04-28T23:14:39.690Z,6.90
2019-04-28T23:17:09.792Z,6.90
2019-04-28T23:19:39.832Z,6.90
2019-04-28T23:22:19.070Z,6.90
2019-04-28T23:24:47.493Z,6.90
2019-04-28T23:29:43.956Z,6.90
2019-04-28T23:32:12.426Z,6.90
2019-04-28T23:34:40.825Z,6.90
2019-04-28T23:37:09.233Z,7.00
2019-04-28T23:39:37.629Z,6.90
2019-04-28T23:42:13.400Z,6.90
2019-04-28T23:44:41.808Z,6.90
2019-04-28T23:49:38.281Z,6.80
2019-04-28T23:52:08.313Z,6.80
2019-04-28T23:57:07.390Z,6.80
2019-04-28T23:59:36.126Z,6.80
